Time;durP1;ratioP1;P1;durP2;ratioP2;P2;SDS_P1;SDS_P2;PMS_P1;PMS_P2;Temp;Humidity;BMP_temperature;BMP_pressure;BME280_temperature;BME280_humidity;BME280_pressure;Samples;Min_cycle;Max_cycle;Signal;HPM_P1;HPM_P2
2022/09/05 00:00:03;;;;;;;10.30;5.10;;;17.20;34.10;;;;;;5086769;28;20472;-60
2022/09/05 00:02:37;;;;;;;8.70;5.03;;;17.20;34.10;;;;;;5045177;28;20464;-60
2022/09/05 00:05:25;;;;;;;7.10;5.00;;;17.20;33.90;;;;;;5080072;28;20479;-60
2022/09/05 00:08:01;;;;;;;6.50;4.83;;;17.10;34.50;;;;;;5013163;28;20792;-60
2022/09/05 00:10:37;;;;;;;8.13;4.70;;;17.10;34.40;;;;;;5078447;28;20464;-60
2022/09/05 00:13:10;;;;;;;8.47;5.20;;;17.00;34.60;;;;;;5058022;28;20448;-61
2022/09/05 00:15:49;;;;;;;6.93;5.03;;;17.00;34.70;;;;;;5045133;28;20463;-61
2022/09/05 00:18:33;;;;;;;7.93;5.30;;;17.00;34.70;;;;;;5087133;28;20861;-60
2022/09/05 00:21:09;;;;;;;8.13;4.87;;;16.90;35.00;;;;;;5013722;28;20642;-61
2022/09/05 00:23:45;;;;;;;7.70;5.30;;;16.90;35.00;;;;;;5083543;28;20458;-61
2022/09/05 00:26:28;;;;;;;9.00;5.80;;;16.90;35.40;;;;;;5047434;28;20452;-61
2022/09/05 00:29:02;;;;;;;8.80;6.20;;;16.80;36.00;;;;;;5098907;22;20827;-64
2022/09/05 00:31:41;;;;;;;9.20;6.43;;;16.90;35.90;;;;;;5106003;27;20461;-64
2022/09/05 00:34:21;;;;;;;9.00;6.00;;;16.80;36.30;;;;;;5127173;27;20451;-64
2022/09/05 00:36:52;;;;;;;8.40;5.53;;;16.80;36.40;;;;;;5122525;27;20477;-64
2022/09/05 00:39:24;;;;;;;11.87;6.30;;;16.80;36.10;;;;;;5123632;27;20996;-64
2022/09/05 00:41:54;;;;;;;7.53;5.40;;;16.80;36.30;;;;;;5125429;27;20563;-65
2022/09/05 00:44:25;;;;;;;8.33;5.67;;;16.80;36.70;;;;;;5126976;27;20450;-64
2022/09/05 00:47:00;;;;;;;8.77;6.30;;;16.80;36.60;;;;;;5123453;27;20450;-64
2022/09/05 00:49:36;;;;;;;8.00;5.70;;;16.70;36.70;;;;;;5120861;27;20484;-64
2022/09/05 00:52:10;;;;;;;7.83;5.00;;;16.70;36.50;;;;;;5130068;27;20468;-64
2022/09/05 00:54:58;;;;;;;7.87;5.50;;;16.70;36.50;;;;;;5121818;27;20969;-65
2022/09/05 00:57:39;;;;;;;9.90;5.63;;;16.70;36.90;;;;;;5122259;27;21036;-63
2022/09/05 01:00:13;;;;;;;7.90;6.17;;;16.70;36.80;;;;;;5127320;27;20477;-67
2022/09/05 01:03:15;;;;;;;9.43;5.60;;;16.60;36.80;;;;;;5133065;27;20465;-67
2022/09/05 01:05:55;;;;;;;8.13;6.40;;;16.60;36.80;;;;;;5138853;27;20449;-63
2022/09/05 01:08:36;;;;;;;8.10;6.30;;;16.60;37.00;;;;;;5125341;27;20485;-63
2022/09/05 01:11:10;;;;;;;10.73;6.60;;;16.60;37.20;;;;;;5125575;27;21034;-63
2022/09/05 01:13:45;;;;;;;10.93;6.87;;;16.50;37.30;;;;;;5126810;27;20450;-63
2022/09/05 01:16:21;;;;;;;7.33;5.43;;;16.50;37.60;;;;;;5125613;27;20454;-63
2022/09/05 01:18:59;;;;;;;10.17;7.17;;;16.50;37.20;;;;;;5127533;27;20478;-64
2022/09/05 01:21:59;;;;;;;11.70;7.63;;;16.50;37.00;;;;;;5126696;27;20451;-64
2022/09/05 01:24:47;;;;;;;10.27;6.33;;;16.50;37.30;;;;;;5126097;27;20453;-64
2022/09/05 01:27:40;;;;;;;12.90;6.30;;;16.50;37.00;;;;;;5127705;27;20555;-63
2022/09/05 01:30:10;;;;;;;10.50;6.77;;;16.50;37.00;;;;;;5122320;27;20566;-64
2022/09/05 01:32:45;;;;;;;9.03;6.03;;;16.50;36.80;;;;;;5122955;27;20554;-64
2022/09/05 01:35:43;;;;;;;9.97;6.40;;;16.40;37.00;;;;;;5125027;27;21272;-63
2022/09/05 01:38:15;;;;;;;9.90;6.30;;;16.40;37.00;;;;;;5125860;27;20474;-65
2022/09/05 01:40:48;;;;;;;11.37;7.27;;;16.40;36.90;;;;;;5122043;27;20443;-63
2022/09/05 01:43:26;;;;;;;10.20;7.50;;;16.40;37.20;;;;;;5125871;27;20455;-65
2022/09/05 01:45:59;;;;;;;9.57;7.50;;;16.40;37.20;;;;;;5126232;27;20488;-64
2022/09/05 01:48:34;;;;;;;9.20;6.57;;;16.40;37.30;;;;;;5123529;27;20466;-65
2022/09/05 01:51:16;;;;;;;10.10;6.30;;;16.40;37.40;;;;;;5122119;27;20482;-64
2022/09/05 01:53:51;;;;;;;10.30;6.93;;;16.40;37.30;;;;;;5123522;27;22091;-64
2022/09/05 01:56:41;;;;;;;9.47;6.43;;;16.40;37.50;;;;;;5122479;27;20458;-64
2022/09/05 01:59:25;;;;;;;8.10;6.20;;;16.40;37.70;;;;;;5127798;27;21065;-64
2022/09/05 02:02:20;;;;;;;9.20;6.10;;;16.40;37.50;;;;;;5123899;27;20466;-63
2022/09/05 02:05:12;;;;;;;8.77;6.53;;;16.40;37.50;;;;;;5117380;27;20471;-66
2022/09/05 02:08:08;;;;;;;9.63;5.73;;;16.40;37.60;;;;;;5125287;27;21203;-64
2022/09/05 02:10:51;;;;;;;10.70;7.13;;;16.30;37.80;;;;;;5121497;27;20463;-63
2022/09/05 02:13:26;;;;;;;13.93;8.60;;;16.30;37.70;;;;;;5122732;27;20503;-63
2022/09/05 02:16:03;;;;;;;12.57;9.03;;;16.30;37.80;;;;;;5127248;27;20453;-65
2022/09/05 02:18:45;;;;;;;13.90;7.60;;;16.20;37.90;;;;;;5122571;27;20466;-64
2022/09/05 02:21:20;;;;;;;11.30;7.70;;;16.20;37.90;;;;;;5122369;27;20454;-63
2022/09/05 02:23:54;;;;;;;11.33;7.57;;;16.20;38.10;;;;;;5124367;27;20473;-63
2022/09/05 02:26:29;;;;;;;9.73;7.33;;;16.10;38.10;;;;;;5120000;27;20462;-64
2022/09/05 02:29:01;;;;;;;10.70;7.27;;;16.10;38.00;;;;;;5123813;27;20477;-63
2022/09/05 02:31:40;;;;;;;11.53;7.93;;;16.10;38.30;;;;;;5125926;27;20506;-63
2022/09/05 02:34:12;;;;;;;10.70;7.97;;;16.10;38.60;;;;;;5122979;27;20462;-63
2022/09/05 02:36:44;;;;;;;12.40;9.20;;;16.10;38.70;;;;;;5118946;27;20459;-64
2022/09/05 02:39:19;;;;;;;11.43;8.10;;;16.00;38.50;;;;;;5125655;27;20473;-63
2022/09/05 02:41:54;;;;;;;9.57;6.70;;;16.00;38.70;;;;;;5119828;27;20462;-64
2022/09/05 02:44:29;;;;;;;9.80;7.50;;;16.00;38.70;;;;;;5124079;27;20447;-66
2022/09/05 02:47:07;;;;;;;13.07;8.13;;;16.00;38.20;;;;;;5115039;27;20454;-65
2022/09/05 02:49:45;;;;;;;9.33;6.93;;;16.00;38.60;;;;;;5123805;27;20480;-64
2022/09/05 02:52:15;;;;;;;9.00;6.60;;;15.90;38.60;;;;;;5122961;28;20457;-63
2022/09/05 02:54:44;;;;;;;9.60;6.80;;;15.90;38.10;;;;;;5113796;27;20457;-66
2022/09/05 02:57:39;;;;;;;9.30;6.70;;;15.90;37.90;;;;;;5108570;27;20541;-62
2022/09/05 03:00:11;;;;;;;8.83;6.93;;;15.90;38.00;;;;;;5122042;28;20461;-64
2022/09/05 03:02:58;;;;;;;11.20;6.70;;;15.90;37.80;;;;;;5127001;27;20489;-64
2022/09/05 03:05:30;;;;;;;10.70;7.07;;;15.80;38.00;;;;;;5125659;27;20994;-63
2022/09/05 03:08:15;;;;;;;8.63;6.40;;;15.80;38.00;;;;;;5125907;27;20473;-63
2022/09/05 03:11:25;;;;;;;9.10;6.73;;;15.70;38.20;;;;;;5112927;27;20454;-65
2022/09/05 03:14:49;;;;;;;9.20;6.40;;;15.70;37.80;;;;;;5121655;27;20500;-63
2022/09/05 03:17:59;;;;;;;9.30;6.77;;;15.70;37.70;;;;;;5099560;27;20458;-65
2022/09/05 03:21:04;;;;;;;8.53;5.80;;;15.70;37.50;;;;;;5121087;27;21000;-63
2022/09/05 03:24:05;;;;;;;11.23;7.10;;;15.70;37.40;;;;;;5115356;27;20553;-63
2022/09/05 03:27:00;;;;;;;8.60;6.17;;;15.70;37.40;;;;;;5126298;27;20538;-64
2022/09/05 03:30:05;;;;;;;9.53;6.83;;;15.70;37.50;;;;;;5130162;27;20480;-63
2022/09/05 03:32:57;;;;;;;12.50;6.73;;;15.60;37.80;;;;;;5117358;27;20470;-64
2022/09/05 03:36:10;;;;;;;10.50;6.40;;;15.60;37.80;;;;;;5129039;27;20449;-64
2022/09/05 03:39:15;;;;;;;10.00;6.90;;;15.50;38.40;;;;;;5090067;27;20985;-63
2022/09/05 03:42:05;;;;;;;10.03;6.53;;;15.50;37.60;;;;;;5126014;27;20454;-63
2022/09/05 03:44:48;;;;;;;10.10;6.57;;;15.50;37.70;;;;;;5119825;27;20450;-65
2022/09/05 03:47:34;;;;;;;16.03;8.40;;;15.50;37.80;;;;;;5099242;27;20983;-64
2022/09/05 03:50:25;;;;;;;13.33;7.60;;;15.40;37.90;;;;;;5123389;27;20474;-62
2022/09/05 03:53:32;;;;;;;9.47;6.77;;;15.40;37.70;;;;;;5122135;27;21122;-63
2022/09/05 03:56:18;;;;;;;9.20;6.60;;;15.40;37.60;;;;;;5115760;27;21084;-63
2022/09/05 03:59:11;;;;;;;10.40;7.50;;;15.40;37.50;;;;;;5123775;27;21229;-64
2022/09/05 04:01:41;;;;;;;12.07;9.00;;;15.40;38.10;;;;;;5115530;27;20849;-67
2022/09/05 04:04:20;;;;;;;8.70;6.37;;;15.40;38.40;;;;;;5122816;27;20569;-67
2022/09/05 04:06:53;;;;;;;9.53;6.77;;;15.30;38.20;;;;;;5123214;27;20454;-67
2022/09/05 04:09:24;;;;;;;8.50;6.40;;;15.30;38.20;;;;;;5125466;27;20489;-66
2022/09/05 04:11:57;;;;;;;11.30;8.00;;;15.30;38.30;;;;;;5119972;27;20454;-67
2022/09/05 04:14:30;;;;;;;10.07;7.33;;;15.10;38.80;;;;;;5120493;27;20467;-67
2022/09/05 04:17:00;;;;;;;9.90;7.23;;;15.10;38.30;;;;;;5124844;27;20458;-68
2022/09/05 04:19:34;;;;;;;12.00;7.37;;;15.20;38.30;;;;;;5122346;27;20470;-67
2022/09/05 04:22:09;;;;;;;13.23;8.63;;;15.20;38.20;;;;;;5122342;27;20465;-68
2022/09/05 04:24:43;;;;;;;9.47;7.00;;;15.20;38.00;;;;;;5125109;27;20469;-70
2022/09/05 04:27:34;;;;;;;10.30;8.13;;;15.10;38.30;;;;;;5118388;27;21014;-67
2022/09/05 04:30:04;;;;;;;10.17;7.07;;;15.00;38.40;;;;;;5118901;27;20474;-69
2022/09/05 04:32:45;;;;;;;9.27;6.80;;;15.00;38.20;;;;;;5126789;27;20474;-67
2022/09/05 04:35:31;;;;;;;12.37;6.97;;;14.90;38.30;;;;;;5123003;27;20445;-68
2022/09/05 04:38:09;;;;;;;10.33;6.70;;;15.00;38.10;;;;;;5117631;27;20471;-68
2022/09/05 04:40:47;;;;;;;9.73;6.30;;;14.90;38.00;;;;;;5119742;27;20458;-68
2022/09/05 04:43:24;;;;;;;10.07;7.27;;;15.00;37.80;;;;;;5122876;27;20458;-68
2022/09/05 04:45:55;;;;;;;10.63;7.13;;;15.00;38.00;;;;;;5125184;27;20446;-68
2022/09/05 04:48:26;;;;;;;8.77;6.70;;;15.00;38.20;;;;;;5120228;27;20470;-68
2022/09/05 04:51:06;;;;;;;11.03;6.70;;;14.90;38.20;;;;;;5122266;27;20454;-68
2022/09/05 04:53:56;;;;;;;10.30;7.10;;;14.90;38.30;;;;;;5120068;27;20470;-69
2022/09/05 04:56:30;;;;;;;12.27;6.57;;;14.90;38.50;;;;;;5107405;27;20542;-68
2022/09/05 04:59:02;;;;;;;9.73;6.97;;;15.00;38.40;;;;;;5119443;27;20477;-68
2022/09/05 05:01:33;;;;;;;9.27;6.07;;;15.10;38.70;;;;;;5124034;27;20523;-68
2022/09/05 05:04:07;;;;;;;9.00;6.47;;;15.20;38.70;;;;;;5126549;27;20462;-67
2022/09/05 05:06:39;;;;;;;8.33;6.03;;;15.30;38.70;;;;;;5122493;27;21249;-72
2022/09/05 05:09:14;;;;;;;7.37;5.27;;;15.50;38.90;;;;;;5116384;27;21124;-69
2022/09/05 05:11:50;;;;;;;9.47;5.77;;;15.70;38.90;;;;;;5122027;27;20454;-69
2022/09/05 05:14:24;;;;;;;9.40;6.10;;;16.10;37.90;;;;;;5122799;27;20454;-69
2022/09/05 05:16:58;;;;;;;12.80;6.40;;;16.50;36.40;;;;;;5131221;27;20456;-71
2022/09/05 05:19:30;;;;;;;7.83;5.27;;;17.20;34.90;;;;;;5133714;27;20470;-70
2022/09/05 05:21:59;;;;;;;7.47;5.10;;;17.80;32.80;;;;;;5117033;27;20831;-70
2022/09/05 05:24:29;;;;;;;7.90;5.63;;;18.40;31.30;;;;;;5118313;27;20834;-71
2022/09/05 05:27:06;;;;;;;31.17;7.63;;;19.00;29.50;;;;;;5117869;27;20470;-71
2022/09/05 05:29:43;;;;;;;7.50;5.73;;;19.50;28.80;;;;;;5127111;27;20485;-70
2022/09/05 05:32:19;;;;;;;6.70;4.50;;;19.90;27.00;;;;;;5113194;27;20725;-70
2022/09/05 05:34:50;;;;;;;9.67;4.93;;;20.20;26.40;;;;;;5126101;27;20954;-69
2022/09/05 05:37:21;;;;;;;7.10;5.10;;;20.10;25.20;;;;;;5128645;27;20969;-70
2022/09/05 05:40:02;;;;;;;6.90;4.60;;;19.90;25.40;;;;;;5125835;27;20446;-70
2022/09/05 05:42:29;;;;;;;8.80;5.70;;;19.90;25.70;;;;;;5126503;27;20454;-70
2022/09/05 05:44:59;;;;;;;6.23;4.73;;;19.80;25.50;;;;;;5119505;27;20450;-70
2022/09/05 05:47:29;;;;;;;8.40;5.67;;;19.80;25.40;;;;;;5129168;27;20459;-70
2022/09/05 05:50:01;;;;;;;8.03;5.40;;;19.80;25.00;;;;;;5105701;22;20500;-71
2022/09/05 05:52:43;;;;;;;7.80;4.87;;;19.70;24.50;;;;;;5081779;28;20455;-69
2022/09/05 05:55:32;;;;;;;8.57;5.40;;;19.70;24.90;;;;;;5080041;28;20453;-69
2022/09/05 05:58:15;;;;;;;7.90;4.83;;;20.00;25.00;;;;;;5076461;28;20456;-69
2022/09/05 06:01:13;;;;;;;8.27;6.10;;;20.10;24.40;;;;;;5066544;28;20485;-70
2022/09/05 06:04:07;;;;;;;7.00;5.10;;;20.20;24.20;;;;;;5055037;28;20457;-70
2022/09/05 06:06:45;;;;;;;8.03;5.73;;;20.40;23.60;;;;;;5064112;28;20461;-70
2022/09/05 06:09:40;;;;;;;7.67;5.40;;;20.70;22.90;;;;;;5065170;28;20477;-70
2022/09/05 06:12:47;;;;;;;11.00;6.03;;;21.00;21.90;;;;;;5055279;28;20453;-70
2022/09/05 06:15:41;;;;;;;9.43;7.40;;;21.00;21.20;;;;;;5057874;28;20457;-69
2022/09/05 06:18:38;;;;;;;10.13;6.93;;;20.80;21.60;;;;;;5063008;28;20514;-70
2022/09/05 06:21:38;;;;;;;9.03;6.30;;;20.70;21.90;;;;;;5058880;28;20473;-70
2022/09/05 06:24:37;;;;;;;8.13;5.30;;;20.70;22.00;;;;;;5058880;28;20461;-69
2022/09/05 06:27:31;;;;;;;9.80;6.50;;;21.20;21.50;;;;;;5062014;28;20453;-69
2022/09/05 06:30:01;;;;;;;9.27;5.77;;;22.10;19.70;;;;;;5063236;28;21161;-70
2022/09/05 06:32:42;;;;;;;10.07;5.17;;;23.10;17.90;;;;;;5062658;28;20483;-71
2022/09/05 06:35:29;;;;;;;6.63;4.60;;;24.10;15.50;;;;;;5073663;28;20694;-71
2022/09/05 06:38:07;;;;;;;6.73;4.87;;;24.80;13.60;;;;;;5065600;28;20464;-69
2022/09/05 06:40:39;;;;;;;6.40;4.50;;;25.20;12.20;;;;;;5063781;28;20464;-70
2022/09/05 06:43:21;;;;;;;6.93;4.40;;;25.90;11.00;;;;;;5061788;28;20961;-70
2022/09/05 06:46:20;;;;;;;11.20;5.30;;;26.10;10.60;;;;;;5049769;28;20485;-71
2022/09/05 06:48:51;;;;;;;8.37;4.23;;;26.10;10.50;;;;;;5063875;28;20454;-70
2022/09/05 06:51:44;;;;;;;6.73;4.50;;;26.40;10.00;;;;;;5073619;28;20485;-70
2022/09/05 06:54:50;;;;;;;7.13;4.50;;;26.80;9.00;;;;;;5074278;28;20444;-70
2022/09/05 06:57:52;;;;;;;6.40;4.50;;;27.80;8.40;;;;;;5076415;28;20464;-69
2022/09/05 07:00:23;;;;;;;9.20;5.53;;;29.80;5.70;;;;;;5088389;28;20471;-69
2022/09/05 07:03:11;;;;;;;6.47;5.10;;;30.60;3.50;;;;;;5077700;28;21038;-70
2022/09/05 07:05:41;;;;;;;6.07;4.77;;;31.30;2.70;;;;;;5084004;28;20448;-71
2022/09/05 07:08:20;;;;;;;6.83;4.87;;;32.60;1.10;;;;;;5085787;28;20463;-70
2022/09/05 07:10:57;;;;;;;7.03;4.30;;;33.70;1.00;;;;;;5077297;28;20487;-69
2022/09/05 07:13:31;;;;;;;6.73;4.67;;;34.90;1.00;;;;;;5076161;28;20530;-70
2022/09/05 07:16:06;;;;;;;6.23;4.73;;;36.40;1.00;;;;;;5079460;28;20621;-70
2022/09/05 07:18:42;;;;;;;6.70;4.53;;;38.30;1.00;;;;;;5075866;28;20820;-70
2022/09/05 07:21:19;;;;;;;5.70;3.90;;;40.10;1.00;;;;;;5078834;28;20478;-70
2022/09/05 07:23:58;;;;;;;6.10;3.93;;;41.70;1.00;;;;;;5074082;28;20466;-70
2022/09/05 07:26:25;;;;;;;7.57;4.13;;;42.30;1.00;;;;;;5079357;28;20509;-70
2022/09/05 07:28:55;;;;;;;7.17;4.10;;;41.30;1.00;;;;;;5078226;28;20456;-70
2022/09/05 07:31:25;;;;;;;6.20;4.30;;;40.20;1.00;;;;;;5079813;28;20465;-70
2022/09/05 07:34:08;;;;;;;6.40;4.90;;;38.90;1.00;;;;;;5092010;28;20460;-70
2022/09/05 07:36:40;;;;;;;5.67;4.17;;;38.00;1.00;;;;;;5078424;28;20963;-70
2022/09/05 07:39:15;;;;;;;6.67;4.97;;;37.60;1.00;;;;;;5077700;28;20456;-71
2022/09/05 07:41:49;;;;;;;8.10;4.97;;;37.20;1.00;;;;;;5086326;28;20455;-70
2022/09/05 07:44:23;;;;;;;6.13;4.83;;;37.00;1.00;;;;;;5083000;28;20523;-71
2022/09/05 07:46:56;;;;;;;6.87;4.87;;;37.10;1.00;;;;;;5074415;28;20982;-70
2022/09/05 07:49:27;;;;;;;7.40;4.70;;;37.20;1.00;;;;;;5085865;28;20490;-71
2022/09/05 07:51:56;;;;;;;5.93;4.63;;;37.50;1.00;;;;;;5095709;28;20479;-69
2022/09/05 07:54:27;;;;;;;6.73;4.57;;;38.00;1.00;;;;;;5080772;28;20471;-69
2022/09/05 07:56:58;;;;;;;6.27;4.20;;;39.30;1.00;;;;;;5083300;28;20460;-69
2022/09/05 07:59:27;;;;;;;7.70;5.20;;;41.20;1.00;;;;;;5079634;28;20937;-69
2022/09/05 08:01:56;;;;;;;5.20;4.30;;;42.90;1.00;;;;;;5089885;28;20543;-69
2022/09/05 08:04:27;;;;;;;8.10;4.70;;;44.30;1.00;;;;;;5080181;28;20452;-69
2022/09/05 08:06:56;;;;;;;5.77;4.50;;;45.10;1.00;;;;;;5085546;28;20474;-69
2022/09/05 08:09:28;;;;;;;7.43;4.97;;;45.70;1.00;;;;;;5085884;28;20456;-69
2022/09/05 08:12:01;;;;;;;5.63;4.00;;;46.30;1.00;;;;;;5085591;28;20463;-69
2022/09/05 08:14:42;;;;;;;6.17;4.07;;;46.60;1.00;;;;;;5076817;28;20804;-69
2022/09/05 08:17:14;;;;;;;7.00;3.87;;;47.30;1.00;;;;;;5079678;28;20491;-69
2022/09/05 08:19:54;;;;;;;5.00;3.27;;;47.80;1.00;;;;;;5085499;28;20476;-69
2022/09/05 08:22:24;;;;;;;4.47;3.50;;;48.60;1.00;;;;;;5079706;28;20459;-70
2022/09/05 08:25:02;;;;;;;4.17;3.30;;;49.00;1.00;;;;;;5085998;28;20474;-69
2022/09/05 08:27:36;;;;;;;4.63;3.50;;;49.30;1.00;;;;;;5084278;28;20456;-69
2022/09/05 08:30:07;;;;;;;4.97;3.17;;;49.50;1.00;;;;;;5083181;28;20903;-69
2022/09/05 08:32:41;;;;;;;5.20;3.00;;;50.00;1.00;;;;;;5081270;28;20469;-70
2022/09/05 08:35:16;;;;;;;6.60;3.77;;;50.50;1.00;;;;;;5083727;28;20456;-70
2022/09/05 08:37:44;;;;;;;4.83;3.43;;;50.80;1.00;;;;;;5083848;28;20464;-69
2022/09/05 08:40:24;;;;;;;5.83;3.50;;;50.90;1.00;;;;;;5082736;28;20479;-70
2022/09/05 08:42:59;;;;;;;5.03;2.93;;;50.90;1.00;;;;;;5079500;28;20456;-68
2022/09/05 08:45:34;;;;;;;5.20;3.10;;;50.80;1.00;;;;;;5083678;28;20454;-69
2022/09/05 08:48:19;;;;;;;5.00;3.60;;;50.90;1.00;;;;;;5080725;28;20452;-70
2022/09/05 08:51:04;;;;;;;4.43;3.20;;;51.40;1.00;;;;;;5081909;28;20481;-68
2022/09/05 08:53:47;;;;;;;5.57;3.20;;;51.50;1.00;;;;;;5087925;28;20462;-69
2022/09/05 08:56:21;;;;;;;4.03;2.60;;;51.50;1.00;;;;;;5079164;28;20937;-70
2022/09/05 08:58:58;;;;;;;5.03;2.83;;;51.50;1.00;;;;;;5087705;28;20459;-70
2022/09/05 09:01:30;;;;;;;5.27;3.13;;;51.60;1.00;;;;;;5086659;28;20848;-70
2022/09/05 09:04:19;;;;;;;4.43;3.07;;;51.90;1.00;;;;;;5086927;28;20456;-70
2022/09/05 09:07:12;;;;;;;5.90;2.90;;;51.90;1.00;;;;;;5085701;28;20452;-70
2022/09/05 09:09:47;;;;;;;5.27;3.47;;;52.10;1.00;;;;;;5077216;28;21065;-70
2022/09/05 09:12:36;;;;;;;4.40;3.13;;;52.00;1.00;;;;;;5088393;28;21167;-68
2022/09/05 09:15:11;;;;;;;6.30;2.70;;;52.20;1.00;;;;;;5086022;28;20838;-69
2022/09/05 09:17:42;;;;;;;4.10;2.67;;;51.30;1.00;;;;;;5080552;28;20451;-68
2022/09/05 09:20:35;;;;;;;3.90;2.37;;;51.30;1.00;;;;;;5084253;28;21060;-69
2022/09/05 09:23:04;;;;;;;4.97;2.33;;;52.10;1.00;;;;;;5088211;28;21807;-69
2022/09/05 09:25:38;;;;;;;3.90;2.40;;;52.70;1.00;;;;;;5081829;28;20477;-69
2022/09/05 09:28:37;;;;;;;4.50;2.70;;;53.00;1.00;;;;;;5081655;28;21198;-69
2022/09/05 09:31:12;;;;;;;4.57;2.70;;;53.20;1.00;;;;;;5084392;28;20474;-70
2022/09/05 09:33:44;;;;;;;5.83;2.60;;;53.10;1.00;;;;;;5090072;28;20466;-70
2022/09/05 09:36:34;;;;;;;4.73;2.40;;;53.00;1.00;;;;;;5081838;28;20958;-70
2022/09/05 09:39:18;;;;;;;5.13;2.53;;;53.30;1.00;;;;;;5079458;28;20456;-68
2022/09/05 09:42:14;;;;;;;3.77;2.30;;;53.60;1.00;;;;;;5084940;28;20471;-69
2022/09/05 09:45:13;;;;;;;5.10;2.20;;;53.90;1.00;;;;;;5052262;28;20491;-71
2022/09/05 09:48:08;;;;;;;4.53;1.83;;;54.10;1.00;;;;;;5081567;28;20464;-69
2022/09/05 09:50:47;;;;;;;4.00;2.37;;;54.30;1.00;;;;;;5083689;28;20484;-70
2022/09/05 09:53:39;;;;;;;5.20;2.40;;;54.50;1.00;;;;;;5085894;28;20459;-69
2022/09/05 09:56:52;;;;;;;7.90;2.10;;;54.70;1.00;;;;;;5077732;28;20456;-69
2022/09/05 09:59:37;;;;;;;4.80;2.53;;;54.90;1.00;;;;;;5084043;28;20452;-69
2022/09/05 10:02:24;;;;;;;3.40;2.03;;;54.90;1.00;;;;;;5074592;28;20465;-68
2022/09/05 10:05:17;;;;;;;3.90;2.10;;;55.00;1.00;;;;;;5087387;28;20455;-69
2022/09/05 10:08:00;;;;;;;3.27;1.90;;;55.40;1.00;;;;;;5087652;28;20907;-69
2022/09/05 10:11:08;;;;;;;3.43;1.60;;;55.60;1.00;;;;;;5078825;28;20556;-69
2022/09/05 10:13:57;;;;;;;4.80;2.30;;;55.90;1.00;;;;;;5067426;28;20470;-68
2022/09/05 10:16:57;;;;;;;6.50;2.00;;;55.80;1.00;;;;;;5083093;28;20941;-69
2022/09/05 10:20:01;;;;;;;4.30;2.37;;;55.60;1.00;;;;;;5087590;28;20487;-71
2022/09/05 10:22:49;;;;;;;4.10;2.50;;;54.70;1.00;;;;;;5015832;28;20450;-68
2022/09/05 10:25:40;;;;;;;3.50;2.30;;;54.30;1.00;;;;;;5080576;28;20563;-70
2022/09/05 10:28:21;;;;;;;11.23;2.47;;;54.20;1.00;;;;;;5076127;28;20459;-70
2022/09/05 10:30:56;;;;;;;5.70;3.00;;;53.80;1.00;;;;;;5078037;28;20468;-70
2022/09/05 10:33:51;;;;;;;6.20;3.00;;;53.50;1.00;;;;;;5075800;28;20451;-70
2022/09/05 10:36:26;;;;;;;4.70;2.43;;;52.90;1.00;;;;;;5063852;28;21005;-69
2022/09/05 10:39:06;;;;;;;4.17;2.53;;;52.30;1.00;;;;;;5072897;28;20452;-69
2022/09/05 10:41:47;;;;;;;5.90;3.00;;;52.00;1.00;;;;;;5089290;28;20513;-69
2022/09/05 10:44:14;;;;;;;4.33;2.50;;;51.90;1.00;;;;;;5081732;28;20563;-69
2022/09/05 10:46:56;;;;;;;9.17;3.20;;;52.20;1.00;;;;;;5077053;28;20544;-69
2022/09/05 10:49:26;;;;;;;5.73;3.00;;;52.00;1.00;;;;;;5083266;28;21030;-69
2022/09/05 10:52:00;;;;;;;5.60;2.47;;;51.70;1.00;;;;;;5085457;28;20455;-70
2022/09/05 10:54:36;;;;;;;4.20;2.40;;;51.40;1.00;;;;;;5086552;28;20451;-70
2022/09/05 10:57:16;;;;;;;4.67;2.97;;;51.10;1.00;;;;;;5089406;28;20480;-69
2022/09/05 11:00:03;;;;;;;5.23;2.20;;;50.70;1.00;;;;;;5087393;28;20846;-70
2022/09/05 11:02:32;;;;;;;5.27;2.57;;;50.60;1.00;;;;;;5083772;28;20456;-70
2022/09/05 11:05:08;;;;;;;5.60;2.50;;;50.50;1.00;;;;;;5081943;28;20456;-71
2022/09/05 11:07:42;;;;;;;4.17;2.10;;;50.40;1.00;;;;;;5079423;28;20520;-71
2022/09/05 11:10:13;;;;;;;3.93;2.60;;;49.80;1.00;;;;;;5083702;28;20490;-71
2022/09/05 11:13:00;;;;;;;4.70;2.30;;;48.30;1.00;;;;;;5077456;28;20475;-70
2022/09/05 11:15:33;;;;;;;4.17;2.50;;;46.60;1.00;;;;;;5071351;28;20452;-69
2022/09/05 11:18:03;;;;;;;4.70;2.50;;;45.00;1.00;;;;;;5082576;28;20948;-69
2022/09/05 11:20:47;;;;;;;4.83;2.40;;;43.40;1.00;;;;;;5078159;28;20617;-69
2022/09/05 11:23:19;;;;;;;6.13;2.63;;;41.90;1.00;;;;;;5073552;28;20464;-70
2022/09/05 11:25:52;;;;;;;4.10;2.63;;;40.50;1.00;;;;;;5084732;28;20459;-69
2022/09/05 11:28:29;;;;;;;4.53;2.40;;;39.40;1.00;;;;;;5079800;28;20457;-70
2022/09/05 11:30:59;;;;;;;3.80;2.03;;;38.50;1.00;;;;;;5087378;28;20994;-70
2022/09/05 11:34:08;;;;;;;5.20;2.37;;;37.80;1.00;;;;;;5085768;28;20467;-70
2022/09/05 11:36:43;;;;;;;5.40;2.60;;;37.00;1.00;;;;;;5081782;28;20529;-70
2022/09/05 11:39:36;;;;;;;4.53;2.50;;;36.50;1.00;;;;;;5081356;28;20467;-70
2022/09/05 11:42:29;;;;;;;4.77;2.60;;;36.00;1.00;;;;;;5073149;28;20509;-70
2022/09/05 11:45:23;;;;;;;5.43;2.77;;;35.40;1.00;;;;;;5081454;28;20459;-71
2022/09/05 11:48:24;;;;;;;6.37;2.50;;;34.90;1.00;;;;;;5084709;28;20453;-69
2022/09/05 11:51:09;;;;;;;6.00;2.67;;;34.40;1.00;;;;;;5090071;28;21017;-69
2022/09/05 11:54:03;;;;;;;5.50;2.50;;;34.00;1.00;;;;;;5084364;28;20455;-69
2022/09/05 11:56:54;;;;;;;4.73;2.50;;;33.70;1.00;;;;;;5085599;28;20452;-70
2022/09/05 12:00:00;;;;;;;4.90;2.70;;;33.50;1.00;;;;;;5089877;28;20452;-70
2022/09/05 12:02:48;;;;;;;5.93;3.10;;;33.20;1.00;;;;;;5075457;28;20477;-70
2022/09/05 12:05:53;;;;;;;4.10;2.57;;;33.00;1.00;;;;;;5090868;28;20462;-70
2022/09/05 12:08:30;;;;;;;5.30;2.80;;;32.80;1.00;;;;;;5079301;28;20444;-71
2022/09/05 12:11:06;;;;;;;6.60;2.70;;;32.70;1.70;;;;;;5078485;28;20494;-70
2022/09/05 12:13:45;;;;;;;5.60;2.50;;;32.60;2.30;;;;;;5083755;28;20463;-70
2022/09/05 12:16:40;;;;;;;4.50;3.10;;;32.40;2.10;;;;;;5085699;28;20487;-70
2022/09/05 12:19:21;;;;;;;4.23;2.60;;;32.40;3.00;;;;;;5071563;28;20449;-71
2022/09/05 12:22:06;;;;;;;4.30;2.60;;;32.30;2.10;;;;;;5086065;28;20992;-70
2022/09/05 12:24:44;;;;;;;6.40;2.60;;;32.10;3.10;;;;;;5079909;28;20466;-70
2022/09/05 12:27:16;;;;;;;6.50;2.67;;;32.00;2.30;;;;;;5080235;28;20465;-69
2022/09/05 12:29:50;;;;;;;5.20;2.43;;;31.70;2.50;;;;;;5083313;28;20603;-70
2022/09/05 12:32:19;;;;;;;5.03;2.80;;;31.50;3.20;;;;;;5086128;28;20850;-73
2022/09/05 12:34:51;;;;;;;6.33;3.10;;;31.30;2.50;;;;;;5088223;28;20452;-70
2022/09/05 12:37:28;;;;;;;5.03;2.80;;;31.00;3.10;;;;;;5088647;28;21019;-71
2022/09/05 12:39:58;;;;;;;6.70;3.03;;;30.80;2.70;;;;;;5087064;28;20511;-69
2022/09/05 12:42:31;;;;;;;5.77;2.47;;;30.60;3.40;;;;;;5083479;28;20480;-72
2022/09/05 12:45:08;;;;;;;4.80;3.30;;;30.40;4.70;;;;;;5086659;28;20460;-69
2022/09/05 12:47:53;;;;;;;4.87;2.80;;;30.30;5.10;;;;;;5084403;28;20464;-70
2022/09/05 12:50:22;;;;;;;5.47;3.03;;;30.30;4.50;;;;;;5081253;28;20484;-70
2022/09/05 12:52:50;;;;;;;6.00;2.70;;;30.10;4.50;;;;;;5084000;28;20453;-70
2022/09/05 12:55:24;;;;;;;9.23;2.57;;;30.00;4.20;;;;;;5086438;28;20459;-71
2022/09/05 12:57:54;;;;;;;5.57;2.67;;;29.90;3.40;;;;;;5084815;28;20449;-70
2022/09/05 13:00:23;;;;;;;5.13;2.40;;;29.90;3.20;;;;;;5085266;28;20480;-71
2022/09/05 13:02:56;;;;;;;5.00;2.63;;;29.90;6.00;;;;;;5084027;28;20841;-70
2022/09/05 13:05:26;;;;;;;5.50;2.80;;;29.90;5.00;;;;;;5079576;28;20460;-71
2022/09/05 13:07:57;;;;;;;5.10;3.10;;;29.90;4.00;;;;;;5081827;28;20456;-71
2022/09/05 13:10:32;;;;;;;5.53;2.73;;;29.90;4.40;;;;;;5082115;28;20851;-71
2022/09/05 13:13:05;;;;;;;5.27;2.80;;;29.80;4.70;;;;;;5081411;28;20443;-70
2022/09/05 13:15:36;;;;;;;5.03;2.77;;;29.90;4.80;;;;;;5078226;28;20911;-70
2022/09/05 13:18:09;;;;;;;4.40;2.40;;;29.90;5.00;;;;;;5080762;28;20462;-70
2022/09/05 13:20:38;;;;;;;4.73;2.53;;;30.00;6.00;;;;;;5078983;28;20483;-69
2022/09/05 13:23:18;;;;;;;4.40;2.63;;;30.00;5.80;;;;;;5079227;28;20932;-70
2022/09/05 13:25:56;;;;;;;7.63;2.63;;;30.00;4.70;;;;;;5077298;28;20483;-69
2022/09/05 13:28:26;;;;;;;5.87;2.70;;;30.00;4.80;;;;;;5084641;28;20491;-69
2022/09/05 13:30:57;;;;;;;5.50;2.20;;;30.10;4.90;;;;;;5088484;28;20482;-70
2022/09/05 13:33:31;;;;;;;4.17;2.23;;;30.20;3.50;;;;;;5081985;28;20466;-70
2022/09/05 13:36:04;;;;;;;5.23;2.20;;;30.30;3.00;;;;;;5079082;28;20457;-70
2022/09/05 13:38:54;;;;;;;6.13;2.10;;;30.40;2.40;;;;;;5079498;28;20468;-71
2022/09/05 13:41:27;;;;;;;5.07;2.60;;;30.50;1.70;;;;;;5080216;28;20559;-71
2022/09/05 13:43:55;;;;;;;4.23;2.13;;;30.60;2.60;;;;;;5074402;28;20448;-71
2022/09/05 13:46:34;;;;;;;4.83;3.00;;;30.70;1.90;;;;;;5077008;28;21028;-70
2022/09/05 13:49:09;;;;;;;4.33;2.23;;;30.60;1.70;;;;;;5087598;28;20456;-70
2022/09/05 13:51:38;;;;;;;5.30;2.30;;;30.60;1.00;;;;;;5078066;28;20478;-69
2022/09/05 13:54:28;;;;;;;4.70;2.30;;;30.60;1.20;;;;;;5079048;28;20975;-71
2022/09/05 13:57:04;;;;;;;4.83;2.20;;;30.50;1.00;;;;;;5081047;28;20491;-69